createdAt,value
2018-05-31T00:01:38.776Z,72.78
2018-05-31T00:04:06.462Z,72.79
2018-05-31T00:06:34.147Z,72.79
2018-05-31T00:09:01.869Z,72.73
2018-05-31T00:14:20.208Z,72.57
2018-05-31T00:16:47.825Z,72.60
2018-05-31T00:19:15.475Z,72.50
2018-05-31T00:21:43.188Z,73.01
2018-05-31T00:24:11.126Z,73.27
2018-05-31T00:26:39.590Z,73.22
2018-05-31T00:29:07.213Z,73.15
2018-05-31T00:31:34.835Z,73.10
2018-05-31T00:34:02.480Z,72.95
2018-05-31T00:36:30.436Z,73.04
2018-05-31T00:38:58.093Z,73.04
2018-05-31T00:41:25.727Z,72.96
2018-05-31T00:43:53.347Z,73.18
2018-05-31T00:46:21.076Z,73.27
2018-05-31T00:48:48.727Z,73.28
2018-05-31T00:51:16.738Z,73.27
2018-05-31T00:53:44.286Z,73.15
2018-05-31T00:56:18.775Z,73.22
2018-05-31T00:58:46.297Z,72.95
2018-05-31T01:01:13.864Z,72.97
2018-05-31T01:03:41.428Z,73.19
2018-05-31T01:06:08.961Z,73.40
2018-05-31T01:08:36.513Z,73.31
2018-05-31T01:11:04.131Z,73.23
2018-05-31T01:13:31.757Z,73.26
2018-05-31T01:15:59.291Z,73.14
2018-05-31T01:18:27.027Z,73.03
2018-05-31T01:20:54.568Z,73.24
2018-05-31T01:23:23.196Z,73.23
2018-05-31T01:25:50.860Z,73.38
2018-05-31T01:28:18.483Z,73.41
2018-05-31T01:30:46.289Z,73.11
2018-05-31T01:33:15.230Z,73.38
2018-05-31T01:35:42.789Z,73.37
2018-05-31T01:38:22.100Z,73.33
2018-05-31T01:40:49.639Z,73.42
2018-05-31T01:43:17.168Z,73.43
2018-05-31T01:45:44.914Z,73.47
2018-05-31T01:48:12.619Z,73.44
2018-05-31T01:50:40.281Z,73.50
2018-05-31T01:53:08.021Z,73.31
2018-05-31T01:55:35.689Z,73.61
2018-05-31T01:58:03.317Z,73.43
2018-05-31T02:03:22.325Z,73.61
2018-05-31T02:05:49.975Z,73.66
2018-05-31T02:08:17.798Z,73.51
2018-05-31T02:13:36.447Z,73.07
2018-05-31T02:16:04.087Z,73.06
2018-05-31T02:18:31.658Z,72.70
2018-05-31T02:20:59.197Z,73.16
2018-05-31T02:23:26.813Z,73.36
2018-05-31T02:25:54.451Z,73.55
2018-05-31T02:28:22.242Z,73.43
2018-05-31T02:30:49.801Z,73.55
2018-05-31T02:33:17.359Z,73.48
2018-05-31T02:35:45.104Z,73.60
2018-05-31T02:38:12.760Z,73.74
2018-05-31T02:41:01.141Z,73.69
2018-05-31T02:43:28.690Z,73.46
2018-05-31T02:45:56.211Z,73.79
2018-05-31T02:48:23.872Z,73.77
2018-05-31T02:50:51.461Z,73.73
2018-05-31T02:53:18.997Z,73.36
2018-05-31T02:55:46.516Z,74.23
2018-05-31T02:58:14.065Z,74.37
2018-05-31T03:00:41.593Z,74.39
2018-05-31T03:03:09.149Z,74.07
2018-05-31T03:05:36.748Z,73.86
2018-05-31T03:08:04.336Z,73.44
2018-05-31T03:10:31.894Z,73.79
2018-05-31T03:12:59.492Z,73.67
2018-05-31T03:15:27.094Z,73.80
2018-05-31T03:17:54.690Z,73.78
2018-05-31T03:20:22.251Z,73.62
2018-05-31T03:22:49.781Z,73.78
2018-05-31T03:25:17.630Z,73.43
2018-05-31T03:27:45.188Z,73.84
2018-05-31T03:30:12.820Z,73.97
2018-05-31T03:35:14.378Z,73.73
2018-05-31T03:37:42.039Z,73.79
2018-05-31T03:40:10.593Z,73.77
2018-05-31T03:42:38.283Z,73.62
2018-05-31T03:45:14.155Z,73.84
2018-05-31T03:47:41.844Z,73.62
2018-05-31T03:52:41.121Z,74.68
2018-05-31T03:55:08.674Z,74.79
2018-05-31T03:57:36.288Z,74.54
2018-05-31T04:00:03.970Z,74.29
2018-05-31T04:02:31.671Z,74.23
2018-05-31T04:04:59.260Z,74.11
2018-05-31T04:07:26.911Z,74.20
2018-05-31T04:09:54.527Z,73.93
2018-05-31T04:12:22.160Z,73.94
2018-05-31T04:14:49.705Z,73.73
2018-05-31T04:17:17.298Z,73.64
2018-05-31T04:19:44.825Z,73.57
2018-05-31T04:22:12.331Z,73.59
2018-05-31T04:24:39.849Z,73.69
2018-05-31T04:27:07.377Z,73.98
2018-05-31T04:29:34.943Z,74.00
2018-05-31T04:32:02.473Z,73.91
2018-05-31T04:34:29.969Z,73.86
2018-05-31T04:36:57.548Z,74.25
2018-05-31T04:39:25.193Z,74.15
2018-05-31T04:41:52.662Z,73.97
2018-05-31T04:44:20.176Z,73.74
2018-05-31T04:46:47.679Z,73.54
2018-05-31T04:49:15.195Z,73.43
2018-05-31T04:51:42.737Z,73.24
2018-05-31T04:54:10.361Z,73.17
2018-05-31T04:56:37.877Z,73.16
2018-05-31T04:59:05.490Z,73.17
2018-05-31T05:01:33.049Z,73.37
2018-05-31T05:04:00.769Z,73.25
2018-05-31T05:06:28.302Z,72.95
2018-05-31T05:08:55.851Z,72.65
2018-05-31T05:11:23.416Z,72.25
2018-05-31T05:13:51.016Z,71.96
2018-05-31T05:16:18.553Z,71.67
2018-05-31T05:18:46.191Z,71.66
2018-05-31T05:21:13.929Z,72.14
2018-05-31T05:23:41.686Z,72.84
2018-05-31T05:26:09.271Z,72.55
2018-05-31T05:28:36.892Z,72.54
2018-05-31T05:31:04.472Z,72.70
2018-05-31T05:33:32.024Z,73.08
2018-05-31T05:36:01.334Z,73.04
2018-05-31T05:38:28.869Z,73.02
2018-05-31T05:40:56.429Z,72.78
2018-05-31T05:43:24.536Z,72.71
2018-05-31T05:45:52.179Z,72.40
2018-05-31T05:48:19.859Z,72.23
2018-05-31T05:50:47.569Z,72.12
2018-05-31T05:53:15.198Z,72.43
2018-05-31T05:55:42.806Z,72.63
2018-05-31T05:58:10.373Z,72.09
2018-05-31T06:00:37.921Z,72.48
2018-05-31T06:03:05.503Z,73.44
2018-05-31T06:05:33.139Z,72.84
2018-05-31T06:08:00.740Z,72.41
2018-05-31T06:10:28.366Z,71.77
2018-05-31T06:12:56.018Z,71.90
2018-05-31T06:15:23.568Z,71.90
2018-05-31T06:17:51.245Z,71.68
2018-05-31T06:20:18.866Z,71.60
2018-05-31T06:22:46.657Z,71.28
2018-05-31T06:25:15.298Z,70.62
2018-05-31T06:27:42.921Z,70.52
2018-05-31T06:30:13.508Z,69.92
2018-05-31T06:32:41.238Z,69.44
2018-05-31T06:35:08.940Z,69.09
2018-05-31T06:37:36.736Z,68.78
2018-05-31T06:40:04.351Z,68.55
2018-05-31T06:42:32.073Z,68.04
2018-05-31T06:44:59.732Z,68.64
2018-05-31T06:47:27.402Z,68.77
2018-05-31T06:49:55.171Z,68.16
2018-05-31T06:52:22.824Z,68.78
2018-05-31T06:54:51.575Z,67.67
2018-05-31T06:57:19.377Z,65.46
2018-05-31T06:59:47.075Z,64.60
2018-05-31T07:02:15.261Z,64.33
2018-05-31T07:04:43.730Z,63.63
2018-05-31T07:07:11.927Z,64.08
2018-05-31T07:09:39.849Z,64.03
2018-05-31T07:12:07.539Z,63.13
2018-05-31T07:14:35.216Z,62.45
2018-05-31T07:17:02.824Z,62.03
2018-05-31T07:19:30.551Z,61.65
2018-05-31T07:21:58.200Z,59.99
2018-05-31T07:24:25.822Z,60.05
2018-05-31T07:26:53.427Z,59.32
2018-05-31T07:29:21.031Z,58.31
2018-05-31T07:31:48.682Z,57.64
2018-05-31T07:36:52.118Z,55.19
2018-05-31T07:39:19.914Z,54.40
2018-05-31T07:41:48.196Z,54.20
2018-05-31T07:44:15.906Z,55.07
2018-05-31T07:46:43.586Z,55.06
2018-05-31T07:49:12.946Z,54.19
2018-05-31T07:51:41.955Z,54.07
2018-05-31T07:54:09.590Z,53.14
2018-05-31T07:56:38.038Z,53.20
2018-05-31T07:59:05.886Z,53.17
2018-05-31T08:01:33.652Z,52.63
2018-05-31T08:04:02.485Z,52.27
2018-05-31T08:06:30.211Z,52.18
2018-05-31T08:08:58.591Z,51.72
2018-05-31T08:11:26.261Z,51.35
2018-05-31T08:13:53.934Z,51.36
2018-05-31T08:16:21.615Z,50.61
2018-05-31T08:18:49.215Z,50.52
2018-05-31T08:21:17.977Z,50.32
2018-05-31T08:23:47.646Z,49.55
2018-05-31T08:26:16.226Z,49.74
2018-05-31T08:28:44.015Z,49.78
2018-05-31T08:31:13.857Z,49.80
2018-05-31T08:33:42.925Z,49.55
2018-05-31T08:36:11.017Z,49.57
2018-05-31T08:38:39.589Z,51.84
2018-05-31T08:41:11.294Z,52.10
2018-05-31T08:43:41.964Z,50.92
2018-05-31T08:46:09.641Z,49.78
2018-05-31T08:48:38.400Z,49.73
2018-05-31T08:51:10.487Z,49.02
2018-05-31T08:53:43.150Z,48.63
2018-05-31T08:56:11.117Z,48.43
2018-05-31T08:58:40.876Z,48.65
2018-05-31T09:01:19.267Z,48.10
2018-05-31T09:03:57.162Z,47.15
2018-05-31T09:06:46.619Z,47.36
2018-05-31T09:12:02.008Z,47.00
2018-05-31T09:17:35.217Z,45.80
2018-05-31T09:20:15.876Z,45.30
2018-05-31T09:22:50.000Z,45.15
2018-05-31T09:25:19.448Z,45.98
2018-05-31T09:27:52.897Z,44.59
2018-05-31T09:30:28.076Z,45.03
2018-05-31T09:33:06.516Z,44.08
2018-05-31T09:35:39.674Z,43.36
2018-05-31T09:38:11.277Z,44.04
2018-05-31T09:40:49.458Z,44.17
2018-05-31T09:43:22.219Z,42.85
2018-05-31T09:45:55.724Z,44.78
2018-05-31T09:48:30.210Z,44.61
2018-05-31T09:51:03.506Z,44.24
2018-05-31T09:53:35.330Z,43.75
2018-05-31T09:56:03.693Z,42.65
2018-05-31T09:58:39.404Z,42.78
2018-05-31T10:01:15.981Z,43.63
2018-05-31T10:03:52.703Z,45.10
2018-05-31T10:06:23.456Z,44.61
2018-05-31T10:08:59.926Z,42.56
2018-05-31T10:11:37.484Z,41.43
2018-05-31T10:14:13.496Z,41.31
2018-05-31T10:16:53.243Z,42.47
2018-05-31T10:22:07.953Z,43.22
2018-05-31T10:24:43.749Z,41.57
2018-05-31T10:27:25.231Z,41.61
2018-05-31T10:29:57.074Z,42.00
2018-05-31T10:32:30.278Z,42.24
2018-05-31T10:35:09.107Z,41.08
2018-05-31T10:37:46.140Z,40.23
2018-05-31T10:40:23.136Z,40.65
2018-05-31T10:42:55.734Z,41.27
2018-05-31T10:45:41.472Z,42.47
2018-05-31T10:48:14.903Z,42.04
2018-05-31T10:50:47.568Z,44.70
2018-05-31T10:53:21.987Z,43.77
2018-05-31T10:55:58.755Z,42.03
2018-05-31T10:58:27.990Z,41.74
2018-05-31T11:01:10.263Z,42.23
2018-05-31T11:03:49.981Z,40.33
2018-05-31T11:06:25.749Z,40.95
2018-05-31T11:14:43.856Z,41.35
2018-05-31T11:17:23.746Z,40.55
2018-05-31T11:20:04.138Z,39.76
2018-05-31T11:26:12.719Z,39.35
2018-05-31T11:34:54.287Z,37.95
2018-05-31T11:38:10.219Z,37.94
2018-05-31T11:46:55.201Z,37.93
2018-05-31T11:55:20.139Z,37.32
2018-05-31T12:22:48.586Z,36.41
2018-05-31T12:30:58.807Z,36.59
2018-05-31T12:33:31.697Z,36.05
2018-05-31T12:36:30.112Z,36.11
2018-05-31T12:39:16.674Z,36.62
2018-05-31T12:48:52.392Z,36.07
2018-05-31T12:51:30.250Z,35.89
2018-05-31T12:56:53.630Z,33.79
2018-05-31T13:02:13.264Z,33.76
2018-05-31T13:04:45.936Z,34.26
2018-05-31T13:07:37.971Z,34.75
2018-05-31T13:10:14.399Z,35.00
2018-05-31T13:12:43.983Z,34.86
2018-05-31T13:15:14.647Z,35.61
2018-05-31T13:20:39.688Z,34.90
2018-05-31T13:23:15.356Z,35.11
2018-05-31T13:31:28.208Z,34.02
2018-05-31T13:34:04.635Z,33.85
2018-05-31T13:36:45.722Z,33.65
2018-05-31T13:42:56.722Z,33.87
2018-05-31T13:57:40.217Z,35.33
2018-05-31T14:17:39.316Z,35.62
2018-05-31T14:20:15.897Z,35.17
2018-05-31T14:22:47.708Z,35.52
2018-05-31T14:28:34.315Z,34.83
2018-05-31T14:31:38.744Z,34.75
2018-05-31T14:34:06.409Z,35.11
2018-05-31T14:36:38.227Z,35.31
2018-05-31T14:39:11.507Z,34.88
2018-05-31T14:41:53.942Z,34.92
2018-05-31T14:44:29.126Z,35.89
2018-05-31T14:46:57.008Z,35.64
2018-05-31T14:49:28.024Z,35.21
2018-05-31T14:51:58.068Z,33.91
2018-05-31T14:57:00.408Z,34.69
2018-05-31T14:59:29.867Z,34.66
2018-05-31T15:02:00.910Z,34.27
2018-05-31T15:04:33.696Z,34.76
2018-05-31T15:07:08.798Z,34.89
2018-05-31T15:09:41.001Z,35.18
2018-05-31T15:15:56.492Z,35.24
2018-05-31T15:18:38.322Z,35.44
2018-05-31T15:21:07.211Z,35.63
2018-05-31T15:23:41.459Z,35.50
2018-05-31T15:29:04.732Z,36.09
2018-05-31T15:31:32.728Z,36.29
2018-05-31T15:34:24.481Z,36.53
2018-05-31T15:36:55.852Z,36.44
2018-05-31T15:39:24.913Z,36.49
2018-05-31T15:42:04.620Z,37.13
2018-05-31T15:44:43.761Z,37.31
2018-05-31T15:47:17.404Z,38.08
2018-05-31T15:49:46.799Z,38.31
2018-05-31T15:52:25.095Z,38.26
2018-05-31T15:54:58.118Z,38.86
2018-05-31T15:57:25.885Z,39.47
2018-05-31T15:59:55.891Z,39.42
2018-05-31T16:02:24.406Z,39.48
2018-05-31T16:04:53.640Z,39.63
2018-05-31T16:07:21.588Z,39.99
2018-05-31T16:09:49.917Z,40.03
2018-05-31T16:12:18.659Z,40.39
2018-05-31T16:14:46.356Z,40.60
2018-05-31T16:17:16.273Z,40.62
2018-05-31T16:19:45.892Z,40.92
2018-05-31T16:22:13.579Z,41.11
2018-05-31T16:24:41.265Z,41.36
2018-05-31T16:27:12.542Z,41.36
2018-05-31T16:29:40.712Z,41.36
2018-05-31T16:32:10.031Z,41.82
2018-05-31T16:34:37.992Z,42.08
2018-05-31T16:37:08.948Z,42.43
2018-05-31T16:39:41.490Z,42.47
2018-05-31T16:42:09.976Z,42.27
2018-05-31T16:44:40.220Z,42.22
2018-05-31T16:47:10.288Z,42.47
2018-05-31T16:49:39.083Z,43.00
2018-05-31T16:52:12.075Z,43.24
2018-05-31T16:54:40.817Z,43.29
2018-05-31T16:57:14.369Z,43.43
2018-05-31T16:59:43.176Z,43.44
2018-05-31T17:02:14.060Z,43.68
2018-05-31T17:04:42.822Z,43.81
2018-05-31T17:07:15.404Z,44.22
2018-05-31T17:09:45.100Z,44.46
2018-05-31T17:12:12.951Z,44.57
2018-05-31T17:14:42.580Z,45.12
2018-05-31T17:17:12.589Z,45.75
2018-05-31T17:19:44.708Z,45.91
2018-05-31T17:22:15.667Z,46.24
2018-05-31T17:24:45.280Z,46.11
2018-05-31T17:27:14.018Z,46.53
2018-05-31T17:29:43.220Z,47.22
2018-05-31T17:32:11.986Z,47.66
2018-05-31T17:34:40.770Z,48.02
2018-05-31T17:37:12.171Z,48.62
2018-05-31T17:39:42.120Z,48.68
2018-05-31T17:42:10.734Z,48.32
2018-05-31T17:44:40.231Z,48.69
2018-05-31T17:47:08.888Z,49.07
2018-05-31T17:49:39.014Z,49.57
2018-05-31T17:52:07.447Z,49.89
2018-05-31T17:54:36.047Z,50.10
2018-05-31T17:57:03.756Z,50.19
2018-05-31T17:59:32.314Z,50.39
2018-05-31T18:02:00.067Z,50.82
2018-05-31T18:04:27.891Z,51.05
2018-05-31T18:06:55.812Z,51.37
2018-05-31T18:09:23.529Z,51.61
2018-05-31T18:11:52.092Z,51.97
2018-05-31T18:14:19.832Z,51.92
2018-05-31T18:16:47.700Z,52.30
2018-05-31T18:19:15.439Z,52.41
2018-05-31T18:21:44.534Z,52.50
2018-05-31T18:24:14.801Z,52.32
2018-05-31T18:26:42.906Z,52.47
2018-05-31T18:29:11.701Z,52.55
2018-05-31T18:31:39.741Z,52.66
2018-05-31T18:34:08.446Z,52.57
2018-05-31T18:36:38.596Z,52.65
2018-05-31T18:39:07.116Z,52.77
2018-05-31T18:41:37.459Z,52.82
2018-05-31T18:44:05.267Z,52.95
2018-05-31T18:46:33.066Z,53.01
2018-05-31T18:49:02.365Z,53.13
2018-05-31T18:51:30.276Z,53.63
2018-05-31T18:53:58.247Z,54.01
2018-05-31T18:56:26.093Z,54.37
2018-05-31T18:58:54.863Z,54.49
2018-05-31T19:01:23.473Z,54.56
2018-05-31T19:03:51.210Z,54.50
2018-05-31T19:06:20.083Z,54.80
2018-05-31T19:08:47.823Z,54.75
2018-05-31T19:11:18.521Z,55.16
2018-05-31T19:13:53.453Z,55.54
2018-05-31T19:16:22.894Z,56.10
2018-05-31T19:18:57.754Z,56.42
2018-05-31T19:21:28.362Z,56.82
2018-05-31T19:23:56.256Z,57.07
2018-05-31T19:26:23.989Z,57.44
2018-05-31T19:28:52.565Z,57.42
2018-05-31T19:31:20.214Z,57.34
2018-05-31T19:33:49.333Z,57.59
2018-05-31T19:36:22.458Z,58.31
2018-05-31T19:38:50.056Z,58.61
2018-05-31T19:41:19.242Z,58.72
2018-05-31T19:43:53.174Z,58.74
2018-05-31T19:46:21.725Z,58.39
2018-05-31T19:48:49.462Z,58.15
2018-05-31T19:51:22.739Z,58.20
2018-05-31T19:53:50.510Z,58.27
2018-05-31T19:56:18.822Z,58.37
2018-05-31T19:58:51.917Z,60.42
2018-05-31T20:01:25.281Z,60.14
2018-05-31T20:03:53.125Z,59.57
2018-05-31T20:06:21.740Z,59.09
2018-05-31T20:08:49.468Z,59.11
2018-05-31T20:11:17.099Z,59.38
2018-05-31T20:13:45.555Z,59.37
2018-05-31T20:16:13.154Z,59.26
2018-05-31T20:18:45.490Z,59.90
2018-05-31T20:21:15.865Z,59.97
2018-05-31T20:23:43.548Z,59.94
2018-05-31T20:26:11.240Z,59.99
2018-05-31T20:28:40.430Z,59.81
2018-05-31T20:31:08.255Z,59.92
2018-05-31T20:33:36.967Z,60.21
2018-05-31T20:36:04.713Z,60.23
2018-05-31T20:38:33.973Z,60.28
2018-05-31T20:41:01.691Z,60.56
2018-05-31T20:43:30.265Z,60.46
2018-05-31T20:45:57.958Z,60.22
2018-05-31T20:48:26.111Z,60.37
2018-05-31T20:50:53.827Z,60.62
2018-05-31T20:53:22.440Z,60.67
2018-05-31T20:55:50.168Z,60.76
2018-05-31T20:58:17.871Z,60.95
2018-05-31T21:00:45.569Z,60.78
2018-05-31T21:03:13.511Z,60.65
2018-05-31T21:05:41.191Z,60.74
2018-05-31T21:08:08.907Z,60.63
2018-05-31T21:10:36.622Z,60.50
2018-05-31T21:13:05.096Z,60.71
2018-05-31T21:15:32.820Z,60.62
2018-05-31T21:18:00.550Z,60.37
2018-05-31T21:20:28.276Z,60.27
2018-05-31T21:22:56.637Z,60.22
2018-05-31T21:25:26.034Z,60.14
2018-05-31T21:27:53.700Z,60.31
2018-05-31T21:30:21.367Z,60.56
2018-05-31T21:32:49.071Z,60.56
2018-05-31T21:35:17.092Z,60.90
2018-05-31T21:37:44.820Z,61.11
2018-05-31T21:40:12.491Z,61.14
2018-05-31T21:42:40.271Z,61.22
2018-05-31T21:45:08.098Z,61.37
2018-05-31T21:47:35.757Z,61.26
2018-05-31T21:50:03.454Z,61.46
2018-05-31T21:52:32.228Z,61.14
2018-05-31T21:54:59.919Z,61.00
2018-05-31T21:57:28.524Z,61.02
2018-05-31T21:59:56.064Z,60.85
2018-05-31T22:02:23.617Z,61.39
2018-05-31T22:04:51.248Z,61.53
2018-05-31T22:07:19.287Z,61.76
2018-05-31T22:09:47.029Z,61.84
2018-05-31T22:12:15.489Z,61.99
2018-05-31T22:14:43.131Z,61.92
2018-05-31T22:17:11.610Z,62.25
2018-05-31T22:19:40.997Z,62.22
2018-05-31T22:22:08.580Z,62.13
2018-05-31T22:24:37.420Z,62.25
2018-05-31T22:27:05.226Z,62.39
2018-05-31T22:29:34.460Z,62.54
2018-05-31T22:32:02.138Z,62.76
2018-05-31T22:34:29.785Z,62.63
2018-05-31T22:36:57.445Z,62.96
2018-05-31T22:39:25.089Z,63.35
2018-05-31T22:41:52.798Z,63.31
2018-05-31T22:44:20.509Z,63.16
2018-05-31T22:46:48.158Z,63.30
2018-05-31T22:49:16.033Z,63.35
2018-05-31T22:51:45.388Z,63.47
2018-05-31T22:54:13.126Z,63.75
2018-05-31T22:59:33.213Z,64.05
2018-05-31T23:02:01.010Z,64.24
2018-05-31T23:04:28.952Z,64.30
2018-05-31T23:06:56.849Z,64.09
2018-05-31T23:09:25.671Z,64.24
2018-05-31T23:11:53.368Z,64.32
2018-05-31T23:14:24.008Z,64.31
2018-05-31T23:16:51.727Z,64.27
2018-05-31T23:19:19.400Z,64.35
2018-05-31T23:21:47.041Z,64.24
2018-05-31T23:24:16.197Z,64.50
2018-05-31T23:26:43.855Z,64.45
2018-05-31T23:29:14.744Z,64.61
2018-05-31T23:31:43.807Z,64.65
2018-05-31T23:34:11.478Z,64.61
2018-05-31T23:36:39.159Z,64.90
2018-05-31T23:39:07.780Z,65.11
2018-05-31T23:41:46.183Z,65.14
2018-05-31T23:44:15.481Z,65.24
2018-05-31T23:46:43.832Z,65.24
2018-05-31T23:49:11.911Z,66.42
2018-05-31T23:51:41.399Z,66.44
2018-05-31T23:54:09.991Z,66.25
2018-05-31T23:56:37.729Z,66.07
2018-05-31T23:59:06.772Z,65.98
